Time;durP1;ratioP1;P1;durP2;ratioP2;P2;SDS_P1;SDS_P2;PMS_P1;PMS_P2;Temp;Humidity;BMP_temperature;BMP_pressure;BME280_temperature;BME280_humidity;BME280_pressure;Samples;Min_cycle;Max_cycle;Signal;HPM_P1;HPM_P2
2023/09/18 00:00:49;;;;;;;9.60;7.57;;;16.30;48.90;;;;;;5103211;27;46879;-81
2023/09/18 00:03:20;;;;;;;10.90;7.17;;;16.40;48.80;;;;;;5088482;27;46634;-82
2023/09/18 00:05:47;;;;;;;11.93;7.30;;;16.30;48.70;;;;;;5105894;27;46285;-83
2023/09/18 00:08:13;;;;;;;9.87;6.73;;;16.40;48.80;;;;;;5107117;27;46490;-79
2023/09/18 00:10:39;;;;;;;8.87;6.30;;;16.40;48.80;;;;;;5105562;27;46497;-81
2023/09/18 00:13:05;;;;;;;13.07;6.50;;;16.50;49.10;;;;;;5106654;27;46567;-82
2023/09/18 00:15:31;;;;;;;13.87;6.17;;;16.30;48.90;;;;;;5106513;27;46498;-85
2023/09/18 00:17:56;;;;;;;14.67;6.40;;;16.20;48.90;;;;;;5091023;27;46559;-84
2023/09/18 00:20:26;;;;;;;9.23;5.83;;;16.10;49.10;;;;;;5104354;27;46465;-82
2023/09/18 00:22:55;;;;;;;7.90;5.57;;;16.00;49.40;;;;;;5092168;27;46648;-82
2023/09/18 00:25:22;;;;;;;12.20;5.23;;;16.10;49.50;;;;;;5111201;27;46930;-85
2023/09/18 00:27:47;;;;;;;9.33;5.23;;;15.80;49.50;;;;;;5108463;27;46524;-82
2023/09/18 00:30:13;;;;;;;8.20;5.60;;;15.70;49.60;;;;;;5107989;27;46237;-81
2023/09/18 00:32:39;;;;;;;8.60;6.00;;;15.70;49.70;;;;;;5107490;27;46462;-82
2023/09/18 00:35:04;;;;;;;9.30;5.57;;;15.60;49.80;;;;;;5103062;27;46524;-81
2023/09/18 00:37:30;;;;;;;9.30;5.50;;;15.60;49.70;;;;;;5086018;27;46843;-83
2023/09/18 00:39:56;;;;;;;10.30;5.80;;;15.60;49.60;;;;;;5104429;27;46378;-82
2023/09/18 00:42:22;;;;;;;9.33;6.20;;;15.60;49.50;;;;;;5106969;27;46359;-81
2023/09/18 00:44:48;;;;;;;9.20;5.60;;;15.60;49.40;;;;;;5103740;27;46974;-82
2023/09/18 00:47:14;;;;;;;8.83;5.67;;;15.50;49.40;;;;;;5102958;27;46397;-83
2023/09/18 00:49:42;;;;;;;10.43;6.53;;;15.50;49.50;;;;;;5088242;27;46557;-82
2023/09/18 00:52:09;;;;;;;9.50;7.10;;;15.60;49.60;;;;;;5086665;27;47016;-81
2023/09/18 00:54:36;;;;;;;11.73;6.30;;;15.50;49.50;;;;;;5089867;27;48287;-83
2023/09/18 00:57:03;;;;;;;8.07;5.83;;;15.50;49.40;;;;;;5103286;27;45812;-81
2023/09/18 00:59:28;;;;;;;13.57;7.30;;;15.50;49.40;;;;;;5106133;27;46499;-83
2023/09/18 01:01:55;;;;;;;8.93;6.23;;;15.50;49.40;;;;;;5089886;27;46649;-81
2023/09/18 01:04:22;;;;;;;9.20;7.10;;;15.50;49.50;;;;;;5103736;27;46714;-81
2023/09/18 01:06:49;;;;;;;11.77;5.73;;;15.60;49.60;;;;;;5091253;27;47269;-82
2023/09/18 01:09:19;;;;;;;10.17;6.70;;;15.60;49.50;;;;;;5089957;27;46598;-81
2023/09/18 01:12:03;;;;;;;9.77;6.50;;;15.60;49.50;;;;;;5087560;27;46488;-81
2023/09/18 01:14:39;;;;;;;10.70;6.40;;;15.60;49.70;;;;;;5104807;27;46491;-82
2023/09/18 01:17:08;;;;;;;11.60;6.20;;;15.50;49.80;;;;;;5106056;27;46961;-83
2023/09/18 01:19:44;;;;;;;10.27;6.33;;;15.30;50.00;;;;;;5103005;27;47030;-82
2023/09/18 01:22:10;;;;;;;11.00;6.97;;;15.30;50.30;;;;;;5109052;27;46477;-82
2023/09/18 01:24:37;;;;;;;10.90;6.33;;;15.30;50.30;;;;;;5106108;27;46827;-82
2023/09/18 01:27:04;;;;;;;9.90;5.97;;;15.30;50.50;;;;;;5085043;27;46726;-82
2023/09/18 01:29:30;;;;;;;9.80;6.53;;;15.30;50.60;;;;;;5107319;27;46323;-82
2023/09/18 01:31:56;;;;;;;8.77;6.53;;;15.30;50.60;;;;;;5087089;27;46756;-81
2023/09/18 01:34:26;;;;;;;12.90;5.87;;;15.30;50.50;;;;;;5110267;27;47044;-80
2023/09/18 01:36:52;;;;;;;10.20;6.80;;;15.30;50.50;;;;;;5108459;27;46557;-83
2023/09/18 01:39:20;;;;;;;12.93;5.87;;;15.30;50.40;;;;;;5109727;27;46425;-82
2023/09/18 01:41:46;;;;;;;15.80;5.33;;;15.30;50.40;;;;;;5102212;27;48052;-82
2023/09/18 01:44:11;;;;;;;8.80;6.37;;;15.30;50.40;;;;;;5111526;27;46667;-81
2023/09/18 01:46:38;;;;;;;8.00;5.40;;;15.30;50.30;;;;;;5105623;27;46672;-81
2023/09/18 01:49:04;;;;;;;10.30;5.60;;;15.30;50.40;;;;;;5109358;27;46748;-82
2023/09/18 01:51:32;;;;;;;13.80;6.07;;;15.30;50.40;;;;;;5108317;27;47119;-82
2023/09/18 01:53:58;;;;;;;11.93;6.20;;;15.20;50.60;;;;;;5107426;27;47005;-82
2023/09/18 01:56:24;;;;;;;11.40;5.90;;;15.20;50.50;;;;;;5106021;27;46400;-79
2023/09/18 01:58:49;;;;;;;9.67;5.23;;;15.20;50.40;;;;;;5108978;27;46444;-83
2023/09/18 02:01:15;;;;;;;8.67;5.73;;;15.30;50.50;;;;;;5107880;27;46508;-81
2023/09/18 02:03:41;;;;;;;7.73;5.87;;;15.30;50.10;;;;;;5090513;27;48304;-84
2023/09/18 02:06:07;;;;;;;8.47;6.10;;;15.50;50.00;;;;;;5110116;27;46725;-82
2023/09/18 02:08:32;;;;;;;9.50;6.07;;;15.60;49.80;;;;;;5107968;27;46700;-82
2023/09/18 02:10:58;;;;;;;9.60;6.67;;;15.50;49.40;;;;;;5105893;27;46615;-82
2023/09/18 02:13:24;;;;;;;11.37;6.60;;;15.60;49.40;;;;;;5105846;27;46752;-85
2023/09/18 02:15:50;;;;;;;12.70;6.50;;;15.60;49.40;;;;;;5106342;27;46506;-83
2023/09/18 02:18:15;;;;;;;11.40;6.83;;;15.60;49.50;;;;;;5109586;27;46556;-78
2023/09/18 02:20:41;;;;;;;9.40;6.60;;;15.50;49.70;;;;;;5109632;27;46718;-81
2023/09/18 02:23:07;;;;;;;10.20;7.30;;;15.50;50.00;;;;;;5107225;27;46471;-81
2023/09/18 02:25:32;;;;;;;10.90;7.00;;;15.30;50.30;;;;;;5090526;27;46587;-85
2023/09/18 02:27:58;;;;;;;9.00;6.30;;;15.40;50.50;;;;;;5109426;27;46549;-86
2023/09/18 02:30:24;;;;;;;14.77;6.73;;;15.50;50.60;;;;;;5094024;27;46458;-83
2023/09/18 02:32:50;;;;;;;12.30;6.97;;;15.40;50.60;;;;;;5111430;27;46525;-85
2023/09/18 02:35:15;;;;;;;9.70;5.97;;;15.40;50.90;;;;;;5110150;27;46439;-82
2023/09/18 02:37:41;;;;;;;8.50;6.40;;;15.40;51.00;;;;;;5113716;27;46651;-82
2023/09/18 02:40:07;;;;;;;9.57;5.73;;;15.30;51.20;;;;;;5094539;27;46541;-81
2023/09/18 02:42:33;;;;;;;9.53;5.73;;;15.30;51.60;;;;;;5107093;27;46798;-80
2023/09/18 02:44:59;;;;;;;17.83;6.50;;;15.30;51.70;;;;;;5088929;27;47149;-82
2023/09/18 02:47:24;;;;;;;9.13;6.40;;;15.10;53.00;;;;;;5107182;27;46498;-83
2023/09/18 02:49:50;;;;;;;11.03;7.20;;;15.00;52.30;;;;;;5105645;27;46800;-83
2023/09/18 02:52:15;;;;;;;11.47;7.53;;;15.00;53.30;;;;;;5106199;27;45971;-81
2023/09/18 02:54:41;;;;;;;14.23;8.50;;;14.90;53.50;;;;;;5105052;27;46773;-80
2023/09/18 02:57:06;;;;;;;9.87;7.30;;;15.00;53.60;;;;;;5106689;27;46517;-81
2023/09/18 02:59:32;;;;;;;18.70;7.10;;;15.10;53.60;;;;;;5106741;27;47171;-83
2023/09/18 03:01:57;;;;;;;12.77;8.13;;;15.10;53.60;;;;;;5086965;27;47095;-83
2023/09/18 03:04:23;;;;;;;13.00;8.50;;;15.10;53.30;;;;;;5106894;27;46426;-80
2023/09/18 03:06:49;;;;;;;11.13;7.13;;;15.00;53.70;;;;;;5091000;27;46668;-82
2023/09/18 03:09:16;;;;;;;12.40;7.77;;;15.00;53.80;;;;;;5106277;27;46391;-81
2023/09/18 03:11:43;;;;;;;11.23;7.90;;;15.10;53.90;;;;;;5107483;27;46950;-82
2023/09/18 03:14:09;;;;;;;13.00;7.50;;;15.20;53.90;;;;;;5104953;27;46438;-82
2023/09/18 03:16:34;;;;;;;10.90;7.90;;;15.10;53.90;;;;;;5093066;27;46344;-82
2023/09/18 03:19:00;;;;;;;12.40;7.37;;;15.20;53.90;;;;;;5107685;27;46622;-81
2023/09/18 03:21:25;;;;;;;10.97;7.33;;;15.10;53.80;;;;;;5106461;27;46448;-83
2023/09/18 03:23:51;;;;;;;10.73;6.87;;;15.10;53.80;;;;;;5106175;27;46422;-83
2023/09/18 03:26:17;;;;;;;11.00;7.20;;;15.20;54.00;;;;;;5092990;27;46476;-80
2023/09/18 03:28:42;;;;;;;12.60;7.00;;;15.10;54.00;;;;;;5091831;27;46634;-80
2023/09/18 03:31:08;;;;;;;10.43;6.77;;;15.00;54.20;;;;;;5092277;27;47943;-82
2023/09/18 03:33:33;;;;;;;12.60;7.60;;;15.00;54.60;;;;;;5107140;27;46362;-82
2023/09/18 03:35:59;;;;;;;11.80;7.90;;;15.00;54.80;;;;;;5107031;27;46741;-82
2023/09/18 03:38:24;;;;;;;11.80;6.97;;;14.90;56.50;;;;;;5093620;27;47054;-78
2023/09/18 03:40:50;;;;;;;10.43;6.40;;;14.90;56.00;;;;;;5107282;27;46475;-82
2023/09/18 03:43:16;;;;;;;8.47;5.97;;;14.80;56.10;;;;;;5105462;27;46607;-80
2023/09/18 03:45:42;;;;;;;7.63;5.70;;;14.80;56.10;;;;;;5108136;27;46504;-82
2023/09/18 03:48:07;;;;;;;9.80;6.17;;;14.70;56.00;;;;;;5104209;27;45919;-81
2023/09/18 03:50:33;;;;;;;9.57;6.40;;;14.70;56.00;;;;;;5102774;27;47610;-84
2023/09/18 03:52:58;;;;;;;10.47;5.97;;;14.60;55.90;;;;;;5088759;27;45978;-82
2023/09/18 03:55:24;;;;;;;10.50;5.63;;;14.60;55.90;;;;;;5109855;27;46526;-80
2023/09/18 03:57:52;;;;;;;8.80;5.80;;;14.50;55.80;;;;;;5088099;27;46624;-81
2023/09/18 04:00:17;;;;;;;12.30;6.43;;;14.40;55.70;;;;;;5109313;27;46473;-79
2023/09/18 04:02:43;;;;;;;10.00;6.10;;;14.40;55.70;;;;;;5106980;27;46469;-80
2023/09/18 04:05:09;;;;;;;8.33;6.00;;;14.50;55.80;;;;;;5091016;27;46465;-81
2023/09/18 04:07:35;;;;;;;8.03;4.90;;;14.40;55.70;;;;;;5107928;27;46717;-80
2023/09/18 04:10:00;;;;;;;8.83;5.77;;;14.30;55.60;;;;;;5107285;27;46568;-82
2023/09/18 04:12:26;;;;;;;11.83;6.83;;;14.30;55.60;;;;;;5106827;27;46568;-81
2023/09/18 04:14:52;;;;;;;12.93;7.63;;;14.40;55.70;;;;;;5091508;27;46542;-81
2023/09/18 04:17:17;;;;;;;10.10;7.07;;;14.40;55.70;;;;;;5112226;27;46765;-82
2023/09/18 04:19:44;;;;;;;10.73;6.27;;;14.30;55.60;;;;;;5110079;27;47653;-82
2023/09/18 04:22:09;;;;;;;9.33;6.70;;;14.30;55.60;;;;;;5115215;27;46829;-84
2023/09/18 04:24:35;;;;;;;9.57;7.23;;;14.40;55.70;;;;;;5113631;27;46472;-83
2023/09/18 04:27:01;;;;;;;10.00;6.60;;;14.40;55.70;;;;;;5111957;27;46477;-83
2023/09/18 04:29:26;;;;;;;9.93;6.80;;;14.30;55.60;;;;;;5106233;27;46588;-81
2023/09/18 04:31:53;;;;;;;11.33;6.80;;;14.30;55.60;;;;;;5086260;27;47029;-84
2023/09/18 04:34:19;;;;;;;18.03;7.60;;;14.30;56.80;;;;;;5106743;27;46457;-82
2023/09/18 04:36:45;;;;;;;13.53;8.30;;;14.30;55.50;;;;;;5106926;27;46447;-80
2023/09/18 04:39:10;;;;;;;17.70;8.40;;;14.30;55.60;;;;;;5108441;27;46513;-82
2023/09/18 04:41:37;;;;;;;15.43;7.60;;;14.30;55.60;;;;;;5104347;27;46460;-80
2023/09/18 04:44:04;;;;;;;11.10;7.40;;;14.30;55.60;;;;;;5108235;27;46498;-83
2023/09/18 04:46:30;;;;;;;15.57;7.40;;;14.30;55.60;;;;;;5107053;27;46529;-81
2023/09/18 04:48:55;;;;;;;14.13;7.53;;;14.20;56.30;;;;;;5087004;27;48228;-81
2023/09/18 04:51:21;;;;;;;12.37;6.47;;;14.10;56.70;;;;;;5104836;27;47059;-81
2023/09/18 04:53:47;;;;;;;11.50;6.47;;;14.10;56.90;;;;;;5108756;27;46576;-82
2023/09/18 04:56:13;;;;;;;16.23;7.10;;;14.10;56.60;;;;;;5109250;27;46417;-82
2023/09/18 04:58:39;;;;;;;10.27;7.10;;;14.20;56.50;;;;;;5094908;27;48135;-82
2023/09/18 05:01:05;;;;;;;10.83;6.63;;;14.30;56.20;;;;;;5103503;27;46454;-81
2023/09/18 05:03:33;;;;;;;13.90;7.47;;;14.30;55.70;;;;;;5106392;27;46692;-82
2023/09/18 05:05:59;;;;;;;11.80;8.53;;;14.40;55.70;;;;;;5103724;27;46457;-82
2023/09/18 05:08:25;;;;;;;12.33;7.80;;;14.60;55.90;;;;;;5109169;27;46740;-81
2023/09/18 05:10:50;;;;;;;11.10;7.40;;;14.70;56.00;;;;;;5090779;27;46479;-81
2023/09/18 05:13:16;;;;;;;9.23;6.40;;;14.90;56.10;;;;;;5087155;27;47017;-82
2023/09/18 05:15:41;;;;;;;13.23;7.27;;;14.80;56.10;;;;;;5108222;27;46506;-81
2023/09/18 05:18:07;;;;;;;9.20;6.50;;;14.90;56.10;;;;;;5092596;27;48894;-82
2023/09/18 05:20:34;;;;;;;13.77;7.20;;;15.00;56.20;;;;;;5110358;27;46815;-81
2023/09/18 05:23:01;;;;;;;15.53;6.87;;;15.10;55.60;;;;;;5109153;27;46641;-80
2023/09/18 05:25:32;;;;;;;11.17;6.20;;;15.20;54.80;;;;;;5108180;27;46472;-82
2023/09/18 05:27:59;;;;;;;8.73;5.50;;;15.40;54.80;;;;;;5109073;27;46843;-83
2023/09/18 05:30:28;;;;;;;15.23;5.80;;;15.50;55.00;;;;;;5092939;27;46240;-82
2023/09/18 05:32:54;;;;;;;12.10;5.63;;;15.70;55.20;;;;;;5111223;27;46755;-82
2023/09/18 05:35:20;;;;;;;7.83;5.37;;;15.90;55.20;;;;;;5093989;27;45847;-82
2023/09/18 05:37:46;;;;;;;8.83;6.03;;;16.10;55.00;;;;;;5108802;27;47508;-80
2023/09/18 05:40:13;;;;;;;8.13;5.30;;;16.40;54.60;;;;;;5109288;27;46465;-79
2023/09/18 05:42:42;;;;;;;8.07;5.50;;;16.70;53.70;;;;;;5109796;27;46520;-81
2023/09/18 05:45:09;;;;;;;7.67;5.10;;;16.90;52.50;;;;;;5108452;27;46537;-81
2023/09/18 05:47:35;;;;;;;10.30;5.07;;;17.10;51.80;;;;;;5108373;27;47566;-82
2023/09/18 05:50:06;;;;;;;9.90;5.43;;;17.20;51.00;;;;;;5106930;27;46753;-84
2023/09/18 05:52:32;;;;;;;6.90;5.30;;;17.30;50.50;;;;;;5107803;27;46207;-82
2023/09/18 05:54:57;;;;;;;12.33;5.40;;;17.40;50.40;;;;;;5090851;27;46438;-81
2023/09/18 05:57:23;;;;;;;9.50;5.47;;;17.40;50.40;;;;;;5110154;27;46617;-82
2023/09/18 05:59:48;;;;;;;6.60;4.97;;;17.50;50.30;;;;;;5089896;27;46994;-82
2023/09/18 06:02:16;;;;;;;13.60;5.23;;;17.50;50.20;;;;;;5110756;27;45905;-82
2023/09/18 06:04:42;;;;;;;8.00;5.43;;;17.60;50.30;;;;;;5092214;27;46741;-82
2023/09/18 06:07:07;;;;;;;11.40;5.67;;;17.70;51.20;;;;;;5105873;27;47256;-81
2023/09/18 06:09:33;;;;;;;8.23;4.87;;;17.70;49.70;;;;;;5112221;27;46449;-85
2023/09/18 06:11:59;;;;;;;13.37;7.00;;;17.80;49.80;;;;;;5116609;27;45953;-84
2023/09/18 06:14:25;;;;;;;12.07;5.73;;;17.80;49.60;;;;;;5104025;27;46489;-80
2023/09/18 06:16:51;;;;;;;8.43;4.80;;;17.70;51.20;;;;;;5107308;27;46516;-83
2023/09/18 06:19:19;;;;;;;7.20;4.73;;;17.50;50.90;;;;;;5105539;27;46518;-85
2023/09/18 06:21:45;;;;;;;11.40;6.23;;;17.30;51.50;;;;;;5113065;27;46500;-85
2023/09/18 06:24:11;;;;;;;12.33;5.77;;;17.30;51.90;;;;;;5108075;27;46437;-84
2023/09/18 06:26:37;;;;;;;10.93;6.20;;;17.10;52.70;;;;;;5090861;27;49680;-85
2023/09/18 06:29:03;;;;;;;12.53;5.90;;;17.20;53.00;;;;;;5108013;27;47120;-85
2023/09/18 06:31:30;;;;;;;7.70;5.53;;;17.30;52.70;;;;;;5107464;27;46614;-85
2023/09/18 06:33:56;;;;;;;9.70;5.40;;;17.60;52.10;;;;;;5090439;27;46586;-81
2023/09/18 06:36:22;;;;;;;13.60;5.37;;;17.90;51.20;;;;;;5108518;27;46724;-82
2023/09/18 06:38:47;;;;;;;16.23;6.33;;;18.10;50.30;;;;;;5095349;27;46963;-82
2023/09/18 06:41:13;;;;;;;11.63;5.67;;;18.30;49.70;;;;;;5108481;27;46559;-81
2023/09/18 06:43:39;;;;;;;17.00;5.77;;;18.50;48.80;;;;;;5093163;27;46664;-80
2023/09/18 06:46:07;;;;;;;12.70;5.50;;;18.80;48.20;;;;;;5107616;27;46725;-81
2023/09/18 06:48:32;;;;;;;10.30;5.87;;;18.90;47.90;;;;;;5093115;27;46493;-80
2023/09/18 06:51:00;;;;;;;8.50;5.80;;;19.00;46.80;;;;;;5106460;27;46447;-82
2023/09/18 06:53:28;;;;;;;8.53;6.03;;;19.10;46.90;;;;;;5108977;27;46709;-80
2023/09/18 06:55:54;;;;;;;16.57;6.00;;;19.20;46.90;;;;;;5107766;27;46649;-76
2023/09/18 06:58:20;;;;;;;10.47;5.07;;;19.30;47.00;;;;;;5109053;27;46493;-82
2023/09/18 07:00:46;;;;;;;10.50;5.33;;;19.50;47.10;;;;;;5110294;27;46798;-83
2023/09/18 07:03:12;;;;;;;15.73;5.90;;;19.70;46.10;;;;;;5105273;27;47195;-81
2023/09/18 07:05:37;;;;;;;10.50;5.83;;;19.80;45.80;;;;;;5106201;27;46473;-80
2023/09/18 07:08:05;;;;;;;9.17;5.70;;;20.00;45.30;;;;;;5088905;27;47204;-80
2023/09/18 07:10:31;;;;;;;11.40;6.00;;;20.10;44.80;;;;;;5108230;27;46278;-80
2023/09/18 07:12:56;;;;;;;16.50;5.80;;;20.00;44.80;;;;;;5106416;27;46422;-79
2023/09/18 07:15:22;;;;;;;9.07;5.60;;;20.00;44.80;;;;;;5109655;27;46513;-79
2023/09/18 07:17:48;;;;;;;15.80;5.63;;;20.20;43.90;;;;;;5092120;27;46569;-80
2023/09/18 07:20:13;;;;;;;14.10;6.80;;;20.20;43.70;;;;;;5106461;27;46669;-82
2023/09/18 07:22:41;;;;;;;13.00;5.83;;;20.20;43.20;;;;;;5106743;27;46560;-81
2023/09/18 07:25:07;;;;;;;11.43;5.70;;;20.30;43.00;;;;;;5104714;27;47454;-80
2023/09/18 07:27:33;;;;;;;10.43;4.97;;;20.50;42.60;;;;;;5105813;27;46952;-81
2023/09/18 07:29:58;;;;;;;12.90;5.63;;;20.60;42.40;;;;;;5108004;27;46424;-80
2023/09/18 07:32:26;;;;;;;7.00;5.20;;;20.80;41.70;;;;;;5110512;27;46444;-79
2023/09/18 07:34:52;;;;;;;15.37;6.17;;;21.00;41.10;;;;;;5099059;27;48210;-83
2023/09/18 07:37:20;;;;;;;10.90;5.20;;;21.10;40.50;;;;;;5107643;27;46543;-79
2023/09/18 07:39:46;;;;;;;8.43;5.47;;;21.20;40.30;;;;;;5104693;27;46789;-82
2023/09/18 07:42:12;;;;;;;9.20;5.17;;;21.20;40.20;;;;;;5095940;27;47099;-79
2023/09/18 07:44:37;;;;;;;8.30;5.37;;;21.20;39.90;;;;;;5093925;27;49295;-80
2023/09/18 07:47:03;;;;;;;9.07;5.00;;;21.30;39.70;;;;;;5109192;27;46485;-80
2023/09/18 07:49:29;;;;;;;9.03;4.40;;;21.20;39.50;;;;;;5108047;27;46789;-80
2023/09/18 07:51:55;;;;;;;13.23;4.77;;;21.20;39.50;;;;;;5096082;27;46426;-82
2023/09/18 07:54:20;;;;;;;11.00;5.27;;;21.20;39.70;;;;;;5110434;27;46565;-82
2023/09/18 07:56:46;;;;;;;9.97;4.50;;;21.10;39.80;;;;;;5111191;27;45906;-80
2023/09/18 07:59:14;;;;;;;7.00;4.30;;;21.10;39.50;;;;;;5113425;27;46496;-83
2023/09/18 08:01:40;;;;;;;16.20;4.90;;;21.30;39.20;;;;;;5113062;27;46465;-81
2023/09/18 08:04:06;;;;;;;17.30;5.57;;;21.60;38.40;;;;;;5104606;27;46499;-80
2023/09/18 08:06:32;;;;;;;11.53;4.83;;;21.80;37.60;;;;;;5106051;27;46666;-83
2023/09/18 08:08:57;;;;;;;10.13;4.60;;;21.90;36.70;;;;;;5085881;27;45926;-81
2023/09/18 08:11:23;;;;;;;11.07;4.37;;;22.10;36.10;;;;;;5090298;27;46478;-77
2023/09/18 08:13:49;;;;;;;18.20;5.20;;;22.40;36.20;;;;;;5105983;27;46483;-81
2023/09/18 08:16:15;;;;;;;11.63;4.40;;;22.60;35.50;;;;;;5104409;27;46589;-79
2023/09/18 08:18:41;;;;;;;7.70;3.77;;;22.80;34.60;;;;;;5106177;27;46465;-83
2023/09/18 08:21:08;;;;;;;17.80;4.80;;;22.90;34.30;;;;;;5107605;27;46651;-81
2023/09/18 08:23:38;;;;;;;8.70;4.00;;;22.90;34.40;;;;;;5105630;27;46563;-81
2023/09/18 08:26:03;;;;;;;15.20;4.00;;;22.90;34.30;;;;;;5089571;27;46726;-80
2023/09/18 08:28:30;;;;;;;10.43;3.97;;;22.90;34.30;;;;;;5106948;27;46417;-80
2023/09/18 08:30:56;;;;;;;17.03;3.93;;;22.90;34.40;;;;;;5090595;27;46591;-81
2023/09/18 08:33:21;;;;;;;12.33;4.30;;;23.00;34.30;;;;;;5105623;27;46664;-81
2023/09/18 08:35:49;;;;;;;9.67;4.40;;;23.10;34.20;;;;;;5105304;27;46741;-81
2023/09/18 08:38:15;;;;;;;9.07;4.60;;;23.20;34.00;;;;;;5107544;27;46688;-80
2023/09/18 08:40:42;;;;;;;8.53;3.60;;;23.30;33.90;;;;;;5108674;27;46687;-83
2023/09/18 08:43:10;;;;;;;10.87;3.60;;;23.40;33.80;;;;;;5105080;27;46442;-81
2023/09/18 08:45:45;;;;;;;10.27;3.30;;;23.50;33.30;;;;;;5103388;27;46686;-81
2023/09/18 08:48:11;;;;;;;16.23;4.37;;;23.60;33.10;;;;;;5104467;27;46455;-82
2023/09/18 08:50:38;;;;;;;11.00;3.60;;;23.70;32.90;;;;;;5108919;27;46900;-82
2023/09/18 08:53:04;;;;;;;10.50;4.10;;;23.80;32.10;;;;;;5086585;27;49219;-80
2023/09/18 08:55:30;;;;;;;9.70;4.13;;;24.00;31.10;;;;;;5104317;27;46836;-82
2023/09/18 08:57:59;;;;;;;7.90;3.20;;;24.20;30.60;;;;;;5104119;27;46481;-81
2023/09/18 09:00:25;;;;;;;12.70;4.13;;;24.40;29.70;;;;;;5103660;27;46192;-79
2023/09/18 09:02:52;;;;;;;7.30;3.43;;;24.60;29.00;;;;;;5104960;27;46557;-80
2023/09/18 09:05:18;;;;;;;10.83;3.03;;;24.70;28.50;;;;;;5107368;27;46596;-82
2023/09/18 09:07:43;;;;;;;11.33;3.20;;;24.70;27.40;;;;;;5089986;27;46449;-81
2023/09/18 09:10:09;;;;;;;17.10;3.70;;;24.80;25.80;;;;;;5093050;27;46523;-82
2023/09/18 09:12:48;;;;;;;11.23;3.30;;;24.90;25.90;;;;;;5089799;27;48252;-82
2023/09/18 09:15:14;;;;;;;9.00;3.20;;;25.20;26.10;;;;;;5106224;27;47019;-82
2023/09/18 09:17:40;;;;;;;11.00;3.20;;;25.40;24.80;;;;;;5106847;27;46746;-81
2023/09/18 09:20:12;;;;;;;11.10;2.90;;;25.50;24.40;;;;;;5105277;27;46931;-80
2023/09/18 09:22:40;;;;;;;12.00;3.60;;;26.00;23.80;;;;;;5106942;27;47933;-81
2023/09/18 09:25:21;;;;;;;10.63;4.00;;;25.90;22.70;;;;;;5086438;27;46941;-83
2023/09/18 09:27:47;;;;;;;14.53;2.93;;;25.50;21.60;;;;;;5110413;27;46607;-81
2023/09/18 09:30:20;;;;;;;19.47;3.00;;;25.50;22.30;;;;;;5104399;27;46949;-78
2023/09/18 09:32:49;;;;;;;10.33;2.90;;;25.50;21.90;;;;;;5106972;27;46498;-82
2023/09/18 09:35:29;;;;;;;15.67;3.03;;;25.30;21.60;;;;;;5089359;27;46644;-80
2023/09/18 09:38:03;;;;;;;12.67;3.30;;;25.20;21.50;;;;;;5099908;27;46494;-82
2023/09/18 09:40:30;;;;;;;13.03;3.00;;;25.00;21.70;;;;;;5093676;27;46467;-83
2023/09/18 09:43:04;;;;;;;16.90;3.63;;;25.00;21.80;;;;;;5096196;27;48356;-85
2023/09/18 09:45:35;;;;;;;15.83;3.30;;;25.10;21.80;;;;;;5110367;27;46666;-85
2023/09/18 09:48:02;;;;;;;12.30;3.63;;;25.20;21.40;;;;;;5099552;27;46956;-82
2023/09/18 09:50:28;;;;;;;20.17;3.87;;;25.40;21.30;;;;;;5108828;27;46495;-81
2023/09/18 09:52:54;;;;;;;22.60;4.13;;;25.50;21.20;;;;;;5105702;27;46711;-84
2023/09/18 09:55:32;;;;;;;17.17;3.40;;;25.50;21.20;;;;;;5090925;27;46831;-83
2023/09/18 09:58:02;;;;;;;17.03;3.93;;;25.50;20.90;;;;;;5109604;27;46501;-84
2023/09/18 10:00:43;;;;;;;8.53;2.90;;;25.40;20.80;;;;;;5094235;27;46419;-84
2023/09/18 10:03:15;;;;;;;17.30;3.33;;;25.30;20.90;;;;;;5092014;27;48580;-80
2023/09/18 10:05:51;;;;;;;11.60;3.23;;;25.40;21.10;;;;;;5112968;27;46367;-82
2023/09/18 10:08:19;;;;;;;12.60;2.90;;;25.40;20.80;;;;;;5106881;27;46420;-82
2023/09/18 10:10:50;;;;;;;13.13;2.77;;;25.30;20.90;;;;;;5109906;27;46490;-80
2023/09/18 10:13:20;;;;;;;15.93;3.33;;;25.20;20.80;;;;;;5107086;27;47434;-81
2023/09/18 10:15:48;;;;;;;17.33;3.10;;;25.30;20.80;;;;;;5108106;27;46827;-79
2023/09/18 10:18:42;;;;;;;11.33;3.00;;;25.30;20.70;;;;;;5107726;27;46813;-86
2023/09/18 10:21:31;;;;;;;12.87;3.37;;;25.30;20.60;;;;;;5107663;27;46791;-79
2023/09/18 10:24:06;;;;;;;17.63;3.73;;;25.40;20.60;;;;;;5093697;27;49072;-84
2023/09/18 10:26:38;;;;;;;15.93;3.40;;;25.50;20.60;;;;;;5107564;27;46457;-80
2023/09/18 10:29:08;;;;;;;17.00;2.93;;;25.50;20.60;;;;;;5109346;27;46711;-82
2023/09/18 10:31:37;;;;;;;6.40;2.73;;;25.50;20.60;;;;;;5092073;27;46413;-82
2023/09/18 10:34:04;;;;;;;10.20;2.80;;;25.40;20.70;;;;;;5088261;27;47398;-82
2023/09/18 10:36:31;;;;;;;23.67;4.30;;;25.30;20.70;;;;;;5104943;27;46532;-81
2023/09/18 10:38:58;;;;;;;14.97;3.60;;;25.10;21.00;;;;;;5107773;27;46497;-82
2023/09/18 10:41:25;;;;;;;9.03;2.60;;;24.80;21.40;;;;;;5104484;27;46110;-82
2023/09/18 10:43:53;;;;;;;8.93;2.43;;;24.80;21.60;;;;;;5107591;27;46735;-83
2023/09/18 10:46:20;;;;;;;6.60;2.50;;;24.80;21.70;;;;;;5104669;27;48005;-81
2023/09/18 10:48:46;;;;;;;9.00;2.40;;;24.60;22.00;;;;;;5106138;27;47158;-81
2023/09/18 10:51:13;;;;;;;13.03;3.37;;;24.40;22.40;;;;;;5107251;27;46595;-81
2023/09/18 10:53:39;;;;;;;12.37;2.53;;;24.10;22.90;;;;;;5108301;27;46368;-81
2023/09/18 10:56:06;;;;;;;10.90;2.37;;;23.90;23.40;;;;;;5104635;27;46471;-81
2023/09/18 10:58:35;;;;;;;12.93;2.90;;;23.70;23.80;;;;;;5107408;27;47009;-82
2023/09/18 11:01:04;;;;;;;8.70;2.50;;;23.50;24.90;;;;;;5106014;27;46229;-81
2023/09/18 11:03:32;;;;;;;8.50;2.50;;;23.40;24.90;;;;;;5104246;27;46426;-81
2023/09/18 11:06:11;;;;;;;8.03;2.33;;;23.30;24.90;;;;;;5105651;27;46497;-81
2023/09/18 11:08:44;;;;;;;8.90;2.60;;;23.10;26.10;;;;;;5090443;27;45887;-82
2023/09/18 11:11:19;;;;;;;6.70;2.40;;;22.90;26.50;;;;;;5097716;27;46178;-81
2023/09/18 11:13:53;;;;;;;7.47;2.30;;;22.70;27.40;;;;;;5111098;27;47053;-81
2023/09/18 11:16:35;;;;;;;10.93;2.70;;;22.50;28.30;;;;;;5107216;27;46018;-81
2023/09/18 11:19:04;;;;;;;9.73;2.43;;;22.20;29.60;;;;;;5107059;27;46624;-82
2023/09/18 11:21:34;;;;;;;8.53;2.50;;;22.10;29.60;;;;;;5099237;27;46520;-81
2023/09/18 11:24:05;;;;;;;6.60;2.23;;;22.20;29.70;;;;;;5093278;27;48316;-81
2023/09/18 11:26:32;;;;;;;11.13;2.90;;;22.10;30.10;;;;;;5110034;27;46288;-83
2023/09/18 11:29:04;;;;;;;15.83;2.83;;;22.00;30.60;;;;;;5107953;27;46446;-82
2023/09/18 11:31:54;;;;;;;7.60;2.40;;;21.60;31.60;;;;;;5113517;27;46442;-83
2023/09/18 11:34:19;;;;;;;12.47;2.47;;;21.30;32.90;;;;;;5113720;27;48469;-85
2023/09/18 11:36:45;;;;;;;7.53;2.03;;;21.20;33.30;;;;;;5118421;27;46197;-82
2023/09/18 11:39:12;;;;;;;7.20;2.30;;;21.00;34.40;;;;;;5112661;27;46503;-80
2023/09/18 11:41:38;;;;;;;7.73;2.50;;;20.80;36.10;;;;;;5105550;27;46501;-81
2023/09/18 11:44:19;;;;;;;6.73;2.40;;;20.70;35.70;;;;;;5107681;27;46529;-80
2023/09/18 11:46:52;;;;;;;10.70;3.10;;;20.50;36.40;;;;;;5107466;27;45853;-81
2023/09/18 11:49:22;;;;;;;10.23;2.67;;;20.40;37.30;;;;;;5097149;27;46536;-81
2023/09/18 11:51:47;;;;;;;13.33;2.70;;;20.20;38.10;;;;;;5107973;27;46474;-80
2023/09/18 11:54:15;;;;;;;12.00;3.33;;;20.10;38.80;;;;;;5108000;27;46430;-81
2023/09/18 11:56:40;;;;;;;11.70;2.87;;;20.00;39.30;;;;;;5107532;27;46564;-80
2023/09/18 11:59:06;;;;;;;8.73;2.40;;;19.90;39.90;;;;;;5106034;27;46507;-78
2023/09/18 12:01:41;;;;;;;4.60;2.30;;;19.80;40.50;;;;;;5088138;27;46521;-81
2023/09/18 12:04:08;;;;;;;10.73;2.87;;;19.70;40.50;;;;;;5108047;27;46500;-80
2023/09/18 12:06:34;;;;;;;6.20;2.37;;;19.80;40.70;;;;;;5105167;27;46532;-81
2023/09/18 12:09:01;;;;;;;5.27;1.97;;;19.80;40.80;;;;;;5107503;27;46904;-82
2023/09/18 12:11:27;;;;;;;6.67;2.57;;;19.70;41.00;;;;;;5104678;27;47263;-80
2023/09/18 12:13:53;;;;;;;5.67;2.07;;;19.70;41.20;;;;;;5103090;27;46482;-80
2023/09/18 12:16:18;;;;;;;15.43;2.63;;;19.80;41.30;;;;;;5102923;27;46657;-80
2023/09/18 12:18:50;;;;;;;8.30;2.37;;;19.70;41.50;;;;;;5106632;27;46524;-81
2023/09/18 12:21:17;;;;;;;9.60;2.37;;;19.60;42.00;;;;;;5109451;27;46687;-78
2023/09/18 12:23:45;;;;;;;5.77;2.10;;;19.70;42.30;;;;;;5098307;27;48432;-81
2023/09/18 12:26:13;;;;;;;5.17;1.83;;;19.70;42.30;;;;;;5104941;27;46680;-80
2023/09/18 12:28:40;;;;;;;6.43;1.80;;;19.70;42.70;;;;;;5105698;27;46506;-81
2023/09/18 12:31:06;;;;;;;4.93;1.83;;;19.70;43.60;;;;;;5106598;27;46384;-81
2023/09/18 12:33:36;;;;;;;5.60;1.67;;;19.60;44.80;;;;;;5088797;27;49451;-81
2023/09/18 12:36:04;;;;;;;5.63;1.97;;;19.70;44.30;;;;;;5090024;27;46792;-81
2023/09/18 12:38:30;;;;;;;3.63;1.50;;;19.80;43.60;;;;;;5104170;27;46932;-84
2023/09/18 12:40:58;;;;;;;3.93;1.57;;;19.90;42.90;;;;;;5104777;27;46495;-85